METAR Data
IDs: Format: Raw Decoded Include TAF

Data at: 0241 UTC 29 Nov 2020

METAR for:KDVN (Davenport Muni, IA, US)
Text:KDVN 290152Z AUTO 20010KT 10SM CLR 07/00 A3006 RMK AO2 SLP180 T00720000
Temperature: 7.2°C ( 45°F)
Dewpoint: 0.0°C ( 32°F) [RH = 60%]
Pressure (altimeter):30.06 inches Hg (1018.0 mb) [Sea level pressure: 1018.0 mb]
Winds:from the SSW (200 degrees) at 12 MPH (10 knots; 5.1 m/s)
Visibility:10 or more sm (16+ km)
Ceiling:at least 12,000 feet AGL
Clouds:sky clear below 12,000 feet AGL
QC Flag:automated observation with no human augmentation